createdAt,value
2023-04-03T00:02:22.164Z,4.00
2023-04-03T00:05:05.436Z,3.90
2023-04-03T00:13:18.568Z,3.58
2023-04-03T00:15:46.405Z,3.95
2023-04-03T00:18:13.635Z,3.90
2023-04-03T00:20:44.069Z,4.20
2023-04-03T00:23:11.378Z,4.13
2023-04-03T00:25:44.967Z,3.60
2023-04-03T00:28:12.254Z,3.75
2023-04-03T00:30:40.572Z,3.33
2023-04-03T00:33:12.824Z,2.90
2023-04-03T00:38:43.038Z,2.92
2023-04-03T00:41:12.797Z,3.10
2023-04-03T00:43:45.740Z,4.00
2023-04-03T00:48:56.356Z,2.60
2023-04-03T00:51:26.543Z,4.05
2023-04-03T00:53:59.344Z,3.28
2023-04-03T00:56:29.528Z,2.90
2023-04-03T00:59:07.591Z,3.17
2023-04-03T01:01:46.820Z,2.97
2023-04-03T01:04:38.987Z,3.38
2023-04-03T01:07:15.817Z,3.50
2023-04-03T01:13:17.994Z,3.28
2023-04-03T01:15:52.455Z,3.03
2023-04-03T01:18:29.709Z,3.42
2023-04-03T01:20:56.845Z,3.03
2023-04-03T01:23:37.150Z,3.42
2023-04-03T01:26:25.570Z,3.17
2023-04-03T01:28:55.767Z,2.95
2023-04-03T01:32:01.374Z,3.75
2023-04-03T01:34:31.779Z,3.30
2023-04-03T01:37:07.872Z,3.35
2023-04-03T01:39:44.018Z,3.42
2023-04-03T01:42:12.790Z,2.97
2023-04-03T01:44:39.725Z,3.58
2023-04-03T01:47:08.538Z,3.90
2023-04-03T01:49:43.429Z,3.42
2023-04-03T01:52:20.782Z,3.90
2023-04-03T01:54:56.388Z,3.90
2023-04-03T01:57:29.602Z,3.60
2023-04-03T02:02:44.745Z,3.67
2023-04-03T02:05:11.986Z,3.67
2023-04-03T02:07:38.945Z,3.65
2023-04-03T02:10:06.341Z,4.00
2023-04-03T02:12:33.400Z,3.97
2023-04-03T02:15:03.451Z,3.97
2023-04-03T02:17:45.091Z,3.40
2023-04-03T02:20:12.779Z,3.90
2023-04-03T02:22:40.777Z,3.60
2023-04-03T02:25:25.696Z,4.07
2023-04-03T02:27:52.545Z,3.65
2023-04-03T02:30:19.791Z,3.80
2023-04-03T02:32:49.783Z,3.88
2023-04-03T02:35:22.724Z,4.18
2023-04-03T02:37:50.783Z,3.65
2023-04-03T02:43:38.036Z,3.60
2023-04-03T02:46:41.659Z,3.80
2023-04-03T02:49:10.382Z,4.00
2023-04-03T02:51:40.907Z,3.70
2023-04-03T02:54:22.954Z,3.85
2023-04-03T02:57:17.260Z,4.03
2023-04-03T02:59:57.215Z,3.72
2023-04-03T03:02:26.705Z,3.83
2023-04-03T03:05:05.506Z,2.80
2023-04-03T03:07:39.428Z,2.72
2023-04-03T03:10:08.725Z,2.70
2023-04-03T03:13:02.399Z,2.50
2023-04-03T03:18:25.455Z,3.38
2023-04-03T03:21:18.253Z,3.92
2023-04-03T03:24:02.863Z,3.17
2023-04-03T03:26:47.564Z,3.78
2023-04-03T03:29:16.305Z,2.78
2023-04-03T03:31:46.741Z,2.60
2023-04-03T03:34:22.862Z,2.65
2023-04-03T03:36:53.018Z,2.65
2023-04-03T03:39:21.255Z,2.97
2023-04-03T03:41:48.750Z,3.13
2023-04-03T03:44:22.670Z,3.72
2023-04-03T03:46:49.817Z,2.42
2023-04-03T03:49:17.278Z,3.60
2023-04-03T03:51:53.087Z,3.58
2023-04-03T03:54:21.836Z,3.78
2023-04-03T03:56:54.940Z,3.80
2023-04-03T03:59:21.964Z,3.90
2023-04-03T04:01:48.882Z,4.13
2023-04-03T04:04:15.978Z,3.95
2023-04-03T04:07:06.716Z,3.13
2023-04-03T04:09:36.470Z,3.63
2023-04-03T04:12:07.717Z,3.15
2023-04-03T04:14:38.030Z,2.60
2023-04-03T04:17:17.440Z,3.63
2023-04-03T04:19:44.363Z,4.78
2023-04-03T04:22:15.694Z,2.95
2023-04-03T04:24:42.598Z,2.85
2023-04-03T04:27:09.535Z,2.70
2023-04-03T04:29:48.895Z,3.13
2023-04-03T04:32:15.959Z,3.30
2023-04-03T04:34:42.886Z,3.97
2023-04-03T04:37:09.872Z,4.20
2023-04-03T04:39:40.079Z,4.40
2023-04-03T04:42:08.430Z,3.97
2023-04-03T04:44:39.945Z,4.60
2023-04-03T04:47:06.901Z,4.65
2023-04-03T04:52:14.959Z,4.38
2023-04-03T04:54:42.409Z,4.25
2023-04-03T04:57:19.374Z,4.28
2023-04-03T04:59:50.883Z,4.63
2023-04-03T05:02:17.883Z,4.47
2023-04-03T05:04:44.943Z,11.13
2023-04-03T05:07:11.960Z,4.50
2023-04-03T05:09:43.548Z,4.40
2023-04-03T05:12:10.679Z,4.15
2023-04-03T05:14:45.007Z,3.47
2023-04-03T05:17:12.127Z,3.78
2023-04-03T05:19:42.019Z,4.60
2023-04-03T05:22:18.932Z,4.80
2023-04-03T05:24:55.118Z,4.57
2023-04-03T05:27:44.735Z,4.30
2023-04-03T05:30:17.880Z,4.28
2023-04-03T05:32:50.953Z,4.57
2023-04-03T05:35:24.057Z,4.63
2023-04-03T05:38:05.045Z,5.32
2023-04-03T05:40:36.998Z,5.57
2023-04-03T05:43:04.269Z,5.38
2023-04-03T05:45:31.418Z,5.63
2023-04-03T05:48:07.383Z,5.90
2023-04-03T05:50:34.385Z,5.97
2023-04-03T05:56:08.781Z,6.10
2023-04-03T05:58:38.310Z,6.20
2023-04-03T06:01:10.313Z,6.28
2023-04-03T06:03:42.731Z,6.40
2023-04-03T06:06:23.129Z,6.10
2023-04-03T06:08:56.312Z,5.28
2023-04-03T06:11:27.138Z,6.30
2023-04-03T06:14:05.062Z,6.85
2023-04-03T06:16:40.886Z,6.30
2023-04-03T06:19:12.557Z,6.22
2023-04-03T06:21:46.733Z,5.33
2023-04-03T06:24:21.614Z,5.93
2023-04-03T06:26:58.688Z,6.60
2023-04-03T06:29:29.242Z,4.80
2023-04-03T06:32:02.121Z,4.00
2023-04-03T06:34:35.093Z,6.15
2023-04-03T06:37:14.557Z,7.15
2023-04-03T06:39:46.950Z,7.28
2023-04-03T06:44:45.627Z,7.47
2023-04-03T06:47:24.631Z,6.63
2023-04-03T06:49:56.214Z,8.13
2023-04-03T06:52:26.452Z,5.13
2023-04-03T06:55:00.964Z,7.50
2023-04-03T06:57:27.964Z,7.57
2023-04-03T07:00:01.260Z,7.55
2023-04-03T07:02:28.580Z,4.93
2023-04-03T07:04:58.138Z,8.07
2023-04-03T07:07:29.903Z,8.02
2023-04-03T07:09:57.748Z,6.93
2023-04-03T07:12:39.922Z,4.25
2023-04-03T07:15:08.478Z,4.88
2023-04-03T07:17:57.391Z,4.80
2023-04-03T07:20:44.504Z,6.10
2023-04-03T07:23:20.099Z,6.38
2023-04-03T07:28:35.537Z,5.50
2023-04-03T07:31:15.999Z,5.53
2023-04-03T07:33:43.117Z,6.50
2023-04-03T07:36:11.397Z,7.55
2023-04-03T07:38:38.882Z,5.35
2023-04-03T07:41:37.316Z,7.22
2023-04-03T07:44:06.982Z,5.38
2023-04-03T07:46:36.982Z,5.90
2023-04-03T07:49:20.689Z,8.80
2023-04-03T07:51:48.204Z,9.73
2023-04-03T07:54:17.802Z,9.65
2023-04-03T07:56:45.569Z,7.20
2023-04-03T07:59:18.871Z,6.85
2023-04-03T08:01:45.808Z,6.65
2023-04-03T08:04:17.251Z,7.78
2023-04-03T08:06:47.344Z,7.50
2023-04-03T08:09:18.515Z,8.93
2023-04-03T08:11:55.042Z,8.43
2023-04-03T08:14:27.010Z,6.93
2023-04-03T08:16:55.172Z,8.15
2023-04-03T08:20:03.998Z,8.60
2023-04-03T08:22:36.974Z,7.63
2023-04-03T08:25:10.341Z,7.68
2023-04-03T08:27:37.514Z,7.53
2023-04-03T08:30:05.554Z,8.52
2023-04-03T08:32:32.484Z,7.45
2023-04-03T08:34:59.505Z,7.43
2023-04-03T08:37:26.761Z,7.60
2023-04-03T08:39:57.941Z,7.47
2023-04-03T08:43:05.322Z,7.47
2023-04-03T08:45:54.687Z,6.25
2023-04-03T08:48:38.184Z,6.50
2023-04-03T08:51:16.299Z,6.57
2023-04-03T08:53:54.202Z,6.00
2023-04-03T08:56:46.383Z,5.60
2023-04-03T08:59:30.436Z,6.05
2023-04-03T09:02:00.789Z,5.28
2023-04-03T09:04:50.862Z,5.22
2023-04-03T09:07:34.747Z,5.03
2023-04-03T09:10:15.305Z,5.80
2023-04-03T09:13:18.433Z,5.60
2023-04-03T09:15:49.868Z,4.60
2023-04-03T09:19:14.409Z,4.65
2023-04-03T09:21:44.479Z,4.35
2023-04-03T09:24:18.680Z,4.50
2023-04-03T09:27:15.536Z,4.35
2023-04-03T09:29:52.708Z,4.32
2023-04-03T09:32:28.939Z,4.10
2023-04-03T09:35:03.849Z,4.30
2023-04-03T09:37:43.155Z,4.07
2023-04-03T09:40:29.585Z,3.88
2023-04-03T09:43:06.634Z,4.03
2023-04-03T09:46:02.224Z,3.83
2023-04-03T09:48:33.720Z,4.95
2023-04-03T09:51:07.336Z,4.00
2023-04-03T09:53:47.802Z,4.47
2023-04-03T09:56:17.845Z,4.65
2023-04-03T09:59:10.361Z,5.07
2023-04-03T10:01:44.734Z,4.25
2023-04-03T10:04:19.240Z,4.68
2023-04-03T10:06:49.130Z,4.22
2023-04-03T10:09:40.328Z,4.25
2023-04-03T10:12:24.073Z,4.03
2023-04-03T10:14:54.205Z,3.88
2023-04-03T10:17:32.016Z,4.03
2023-04-03T10:20:34.130Z,4.00
2023-04-03T10:23:32.869Z,3.47
2023-04-03T10:26:18.090Z,3.35
2023-04-03T10:29:42.557Z,3.78
2023-04-03T10:32:47.979Z,3.40
2023-04-03T10:36:10.246Z,3.30
2023-04-03T10:39:11.621Z,3.28
2023-04-03T10:42:16.029Z,2.70
2023-04-03T10:45:35.130Z,2.85
2023-04-03T10:48:53.929Z,3.22
2023-04-03T10:51:36.555Z,2.55
2023-04-03T10:57:12.584Z,3.22
2023-04-03T10:59:49.701Z,2.47
2023-04-03T11:02:26.424Z,2.83
2023-04-03T11:05:10.548Z,2.65
2023-04-03T11:07:48.023Z,2.55
2023-04-03T11:10:23.976Z,2.55
2023-04-03T11:13:02.972Z,2.50
2023-04-03T11:15:44.751Z,2.58
2023-04-03T11:18:21.660Z,2.20
2023-04-03T11:21:18.967Z,1.88
2023-04-03T11:23:54.821Z,2.20
2023-04-03T11:26:29.579Z,2.00
2023-04-03T11:29:03.012Z,2.28
2023-04-03T11:32:21.832Z,2.13
2023-04-03T11:35:11.379Z,1.83
2023-04-03T11:38:03.328Z,2.20
2023-04-03T11:40:38.433Z,2.20
2023-04-03T11:43:42.715Z,1.90
2023-04-03T11:46:14.975Z,2.10
2023-04-03T11:48:46.788Z,2.08
2023-04-03T11:51:35.965Z,1.98
2023-04-03T11:54:48.469Z,2.25
2023-04-03T11:58:06.633Z,2.30
2023-04-03T12:00:59.877Z,2.10
2023-04-03T12:03:47.733Z,1.92
2023-04-03T12:06:14.945Z,1.88
2023-04-03T12:08:42.927Z,1.75
2023-04-03T12:11:09.845Z,1.67
2023-04-03T12:13:41.957Z,1.77
2023-04-03T12:16:29.314Z,1.60
2023-04-03T12:19:16.235Z,1.52
2023-04-03T12:21:46.924Z,1.60
2023-04-03T12:24:48.813Z,1.83
2023-04-03T12:27:28.145Z,1.70
2023-04-03T12:30:16.054Z,1.40
2023-04-03T12:39:24.364Z,1.50
2023-04-03T12:42:12.593Z,1.60
2023-04-03T12:44:47.779Z,1.60
2023-04-03T12:47:29.380Z,1.70
2023-04-03T12:50:03.954Z,1.70
2023-04-03T12:52:31.111Z,1.70
2023-04-03T12:57:45.202Z,1.40
2023-04-03T13:00:41.348Z,1.98
2023-04-03T13:03:31.394Z,1.60
2023-04-03T13:06:03.034Z,1.50
2023-04-03T13:08:33.957Z,1.30
2023-04-03T13:11:07.628Z,1.70
2023-04-03T13:13:43.633Z,1.90
2023-04-03T13:16:19.519Z,1.50
2023-04-03T13:18:55.829Z,1.38
2023-04-03T13:21:34.829Z,1.58
2023-04-03T13:24:15.334Z,1.83
2023-04-03T13:26:49.640Z,1.90
2023-04-03T13:29:45.094Z,1.38
2023-04-03T13:32:21.630Z,1.60
2023-04-03T13:34:52.158Z,1.98
2023-04-03T13:37:31.688Z,1.70
2023-04-03T13:40:07.644Z,1.67
2023-04-03T13:42:43.369Z,1.55
2023-04-03T13:45:38.128Z,1.65
2023-04-03T13:48:24.805Z,1.60
2023-04-03T13:51:05.718Z,1.60
2023-04-03T13:53:58.235Z,1.60
2023-04-03T13:56:42.291Z,1.50
2023-04-03T13:59:14.199Z,1.67
2023-04-03T14:02:11.360Z,1.55
2023-04-03T14:04:46.229Z,1.98
2023-04-03T14:07:22.153Z,1.60
2023-04-03T14:09:50.044Z,1.70
2023-04-03T14:12:31.768Z,1.50
2023-04-03T14:15:02.616Z,1.60
2023-04-03T14:17:30.160Z,1.60
2023-04-03T14:20:00.558Z,1.60
2023-04-03T14:22:36.067Z,1.42
2023-04-03T14:25:09.892Z,1.20
2023-04-03T14:27:46.753Z,1.58
2023-04-03T14:30:26.729Z,1.52
2023-04-03T14:32:53.814Z,1.60
2023-04-03T14:35:21.980Z,1.80
2023-04-03T14:37:49.808Z,1.58
2023-04-03T14:40:23.271Z,1.75
2023-04-03T14:42:50.425Z,1.58
2023-04-03T14:45:26.140Z,1.60
2023-04-03T14:47:56.448Z,1.92
2023-04-03T14:50:26.751Z,2.08
2023-04-03T14:52:56.897Z,1.90
2023-04-03T14:55:29.088Z,2.30
2023-04-03T14:57:58.900Z,2.35
2023-04-03T15:00:26.228Z,2.10
2023-04-03T15:02:53.730Z,2.42
2023-04-03T15:05:29.547Z,2.25
2023-04-03T15:08:21.732Z,2.03
2023-04-03T15:10:50.497Z,2.58
2023-04-03T15:13:24.072Z,3.42
2023-04-03T15:15:55.684Z,3.65
2023-04-03T15:18:37.294Z,3.47
2023-04-03T15:21:10.144Z,2.60
2023-04-03T15:23:39.874Z,3.42
2023-04-03T15:26:23.456Z,3.45
2023-04-03T15:28:55.433Z,4.13
2023-04-03T15:31:32.854Z,4.20
2023-04-03T15:34:01.715Z,2.00
2023-04-03T15:36:38.140Z,3.75
2023-04-03T15:39:12.581Z,5.35
2023-04-03T15:41:45.073Z,3.13
2023-04-03T15:46:48.875Z,3.97
2023-04-03T15:49:22.662Z,3.70
2023-04-03T15:51:49.641Z,2.30
2023-04-03T15:54:22.706Z,1.92
2023-04-03T15:57:04.323Z,1.80
2023-04-03T15:59:33.342Z,2.25
2023-04-03T16:02:07.646Z,1.83
2023-04-03T16:04:48.335Z,1.83
2023-04-03T16:07:16.317Z,2.50
2023-04-03T16:09:43.401Z,2.08
2023-04-03T16:12:19.455Z,2.35
2023-04-03T16:14:49.388Z,1.90
2023-04-03T16:17:16.835Z,2.08
2023-04-03T16:19:46.185Z,1.90
2023-04-03T16:22:14.626Z,1.90
2023-04-03T16:24:42.734Z,1.90
2023-04-03T16:27:10.049Z,1.80
2023-04-03T16:29:39.926Z,1.80
2023-04-03T16:32:11.897Z,2.03
2023-04-03T16:34:39.084Z,2.10
2023-04-03T16:37:06.042Z,1.90
2023-04-03T16:39:36.905Z,2.28
2023-04-03T16:42:12.997Z,2.05
2023-04-03T16:45:04.059Z,1.60
2023-04-03T16:47:37.246Z,1.80
2023-04-03T16:50:08.173Z,2.03
2023-04-03T16:52:38.834Z,1.83
2023-04-03T16:55:21.147Z,1.70
2023-04-03T16:57:55.108Z,1.65
2023-04-03T17:03:05.082Z,1.65
2023-04-03T17:05:32.123Z,1.95
2023-04-03T17:08:02.998Z,1.60
2023-04-03T17:10:39.261Z,2.00
2023-04-03T17:13:08.721Z,1.63
2023-04-03T17:15:36.022Z,1.85
2023-04-03T17:18:03.171Z,1.77
2023-04-03T17:20:31.581Z,1.88
2023-04-03T17:22:58.996Z,1.83
2023-04-03T17:25:42.634Z,1.83
2023-04-03T17:28:24.121Z,1.73
2023-04-03T17:30:52.258Z,1.98
2023-04-03T17:33:25.545Z,1.90
2023-04-03T17:36:05.770Z,1.63
2023-04-03T17:38:36.722Z,1.80
2023-04-03T17:41:21.785Z,1.90
2023-04-03T17:43:48.823Z,1.60
2023-04-03T17:46:21.379Z,1.98
2023-04-03T17:48:53.090Z,1.70
2023-04-03T17:51:31.477Z,1.75
2023-04-03T17:54:04.343Z,1.80
2023-04-03T17:56:34.280Z,1.63
2023-04-03T17:59:04.386Z,2.05
2023-04-03T18:01:34.662Z,2.00
2023-04-03T18:04:06.238Z,1.88
2023-04-03T18:06:55.522Z,1.97
2023-04-03T18:09:54.923Z,1.90
2023-04-03T18:12:24.426Z,1.98
2023-04-03T18:14:51.823Z,2.22
2023-04-03T18:17:22.789Z,2.33
2023-04-03T18:19:54.230Z,1.90
2023-04-03T18:22:48.299Z,2.20
2023-04-03T18:25:24.147Z,2.15
2023-04-03T18:27:59.824Z,2.10
2023-04-03T18:30:34.430Z,2.13
2023-04-03T18:33:04.259Z,2.38
2023-04-03T18:35:31.971Z,2.00
2023-04-03T18:37:58.855Z,2.70
2023-04-03T18:40:27.023Z,2.60
2023-04-03T18:42:59.537Z,2.50
2023-04-03T18:48:00.565Z,2.10
2023-04-03T18:50:27.586Z,2.95
2023-04-03T18:52:54.706Z,2.40
2023-04-03T18:55:23.837Z,2.50
2023-04-03T18:58:00.605Z,2.97
2023-04-03T19:00:34.808Z,2.88
2023-04-03T19:03:02.103Z,2.83
2023-04-03T19:05:36.786Z,3.45
2023-04-03T19:08:05.504Z,2.90
2023-04-03T19:10:35.336Z,2.53
2023-04-03T19:13:05.750Z,2.85
2023-04-03T19:15:38.931Z,2.55
2023-04-03T19:18:06.135Z,2.65
2023-04-03T19:20:37.235Z,2.65
2023-04-03T19:23:23.278Z,2.72
2023-04-03T19:26:08.402Z,2.75
2023-04-03T19:28:38.851Z,2.53
2023-04-03T19:31:16.887Z,3.33
2023-04-03T19:33:58.593Z,2.78
2023-04-03T19:36:34.620Z,3.00
2023-04-03T19:39:03.071Z,3.58
2023-04-03T19:41:40.902Z,3.35
2023-04-03T19:44:19.204Z,3.65
2023-04-03T19:46:51.174Z,3.78
2023-04-03T19:54:34.353Z,3.22
2023-04-03T19:57:11.923Z,4.30
2023-04-03T19:59:39.795Z,3.30
2023-04-03T20:02:07.245Z,3.28
2023-04-03T20:04:39.247Z,3.75
2023-04-03T20:07:06.459Z,4.25
2023-04-03T20:09:36.672Z,3.40
2023-04-03T20:12:11.874Z,3.70
2023-04-03T20:14:41.869Z,4.10
2023-04-03T20:17:12.890Z,4.32
2023-04-03T20:19:39.862Z,3.60
2023-04-03T20:22:06.850Z,3.83
2023-04-03T20:24:34.714Z,3.63
2023-04-03T20:27:02.189Z,4.20
2023-04-03T20:29:37.324Z,3.53
2023-04-03T20:32:13.414Z,3.63
2023-04-03T20:35:04.719Z,4.00
2023-04-03T20:37:32.856Z,4.13
2023-04-03T20:40:00.928Z,4.00
2023-04-03T20:42:28.901Z,3.17
2023-04-03T20:44:57.680Z,3.95
2023-04-03T20:47:51.507Z,3.70
2023-04-03T20:50:19.972Z,3.88
2023-04-03T20:53:09.415Z,4.57
2023-04-03T20:55:41.064Z,3.72
2023-04-03T20:58:09.698Z,4.38
2023-04-03T21:03:32.386Z,3.92
2023-04-03T21:06:07.133Z,4.43
2023-04-03T21:09:12.202Z,4.30
2023-04-03T21:12:17.262Z,5.43
2023-04-03T21:15:34.845Z,3.67
2023-04-03T21:18:10.485Z,3.95
2023-04-03T21:20:58.749Z,4.07
2023-04-03T21:23:32.970Z,4.20
2023-04-03T21:26:03.603Z,4.15
2023-04-03T21:28:43.540Z,4.25
2023-04-03T21:31:17.135Z,4.30
2023-04-03T21:33:53.364Z,3.92
2023-04-03T21:36:20.251Z,4.13
2023-04-03T21:38:48.019Z,4.00
2023-04-03T21:41:17.705Z,4.47
2023-04-03T21:43:47.419Z,4.57
2023-04-03T21:46:28.071Z,4.35
2023-04-03T21:49:01.056Z,3.63
2023-04-03T21:51:45.429Z,3.75
2023-04-03T21:54:20.867Z,4.00
2023-04-03T21:56:49.752Z,4.00
2023-04-03T21:59:17.927Z,4.55
2023-04-03T22:01:48.481Z,4.10
2023-04-03T22:04:18.470Z,4.25
2023-04-03T22:06:51.625Z,4.38
2023-04-03T22:09:23.484Z,5.00
2023-04-03T22:11:50.524Z,4.53
2023-04-03T22:15:03.384Z,4.40
2023-04-03T22:17:32.370Z,4.65
2023-04-03T22:20:10.317Z,4.15
2023-04-03T22:22:37.262Z,5.57
2023-04-03T22:25:04.788Z,4.60
2023-04-03T22:27:32.052Z,5.05
2023-04-03T22:30:10.801Z,4.50
2023-04-03T22:32:42.262Z,4.70
2023-04-03T22:35:14.117Z,4.63
2023-04-03T22:38:04.589Z,4.53
2023-04-03T22:40:33.226Z,5.07
2023-04-03T22:43:00.273Z,5.13
2023-04-03T22:45:34.102Z,4.53
2023-04-03T22:48:01.633Z,5.20
2023-04-03T22:50:28.773Z,5.50
2023-04-03T22:53:00.158Z,5.32
2023-04-03T22:55:30.152Z,4.60
2023-04-03T22:58:00.136Z,4.90
2023-04-03T23:00:35.147Z,5.03
2023-04-03T23:03:07.702Z,5.22
2023-04-03T23:08:12.392Z,4.38
2023-04-03T23:10:46.239Z,5.15
2023-04-03T23:13:24.858Z,4.75
2023-04-03T23:16:04.947Z,4.68
2023-04-03T23:18:33.064Z,4.93
2023-04-03T23:21:15.603Z,3.65
2023-04-03T23:23:45.008Z,4.38
2023-04-03T23:26:20.364Z,4.20
2023-04-03T23:28:47.260Z,4.57
2023-04-03T23:31:20.049Z,4.30
2023-04-03T23:33:46.928Z,4.80
2023-04-03T23:36:22.663Z,4.05
2023-04-03T23:39:07.803Z,3.80
2023-04-03T23:41:49.060Z,3.88
2023-04-03T23:44:31.799Z,3.90
2023-04-03T23:47:02.451Z,3.75
2023-04-03T23:49:30.510Z,3.78
2023-04-03T23:52:02.186Z,3.50
2023-04-03T23:57:15.958Z,4.00
